Time;durP1;ratioP1;P1;durP2;ratioP2;P2;SDS_P1;SDS_P2;PMS_P1;PMS_P2;Temp;Humidity;BMP_temperature;BMP_pressure;BME280_temperature;BME280_humidity;BME280_pressure;Samples;Min_cycle;Max_cycle;Signal;HPM_P1;HPM_P2
2024/03/04 00:00:54;;;;;;;30.88;21.80;;;8.40;99.90;;;;;;2086275;28;20022;-66
2024/03/04 00:01:54;;;;;;;27.27;20.85;;;8.40;99.90;;;;;;2086841;28;20033;-66
2024/03/04 00:02:55;;;;;;;30.65;22.50;;;8.40;99.90;;;;;;2084971;28;20056;-66
2024/03/04 00:03:56;;;;;;;28.92;21.85;;;8.40;99.90;;;;;;2087092;28;20033;-66
2024/03/04 00:04:56;;;;;;;31.33;22.92;;;8.40;99.90;;;;;;2086276;28;20032;-66
2024/03/04 00:05:57;;;;;;;33.95;24.48;;;8.40;99.90;;;;;;2085617;28;20489;-65
2024/03/04 00:07:01;;;;;;;34.03;24.80;;;8.40;99.90;;;;;;2087629;28;20485;-66
2024/03/04 00:08:04;;;;;;;24.58;19.85;;;8.40;99.90;;;;;;2079479;28;20033;-66
2024/03/04 00:09:04;;;;;;;30.67;23.90;;;8.40;99.90;;;;;;2080918;28;20353;-66
2024/03/04 00:10:07;;;;;;;29.05;22.83;;;8.30;99.90;;;;;;2087232;28;20078;-66
2024/03/04 00:11:07;;;;;;;28.05;21.40;;;8.30;99.90;;;;;;2077641;28;20111;-66
2024/03/04 00:12:08;;;;;;;30.10;21.60;;;8.30;99.90;;;;;;2078124;28;20022;-66
2024/03/04 00:13:09;;;;;;;27.23;21.92;;;8.30;99.90;;;;;;2085965;28;20438;-65
2024/03/04 00:14:10;;;;;;;28.80;21.73;;;8.30;99.90;;;;;;2084837;28;20037;-66
2024/03/04 00:15:11;;;;;;;31.98;23.05;;;8.30;99.90;;;;;;2084686;28;20026;-67
2024/03/04 00:16:11;;;;;;;24.90;19.13;;;8.30;99.90;;;;;;2084989;28;20061;-66
2024/03/04 00:17:12;;;;;;;26.25;20.60;;;8.30;99.90;;;;;;2087061;28;20027;-66
2024/03/04 00:18:14;;;;;;;33.30;23.77;;;8.30;99.90;;;;;;2086720;28;20025;-65
2024/03/04 00:19:18;;;;;;;29.77;21.45;;;8.30;99.90;;;;;;2085356;28;20036;-66
2024/03/04 00:20:19;;;;;;;31.05;22.05;;;8.20;99.90;;;;;;2086279;28;20033;-66
2024/03/04 00:21:19;;;;;;;28.35;21.92;;;8.20;99.90;;;;;;2085472;28;20124;-66
2024/03/04 00:22:20;;;;;;;28.48;22.70;;;8.20;99.90;;;;;;2087641;28;20024;-65
2024/03/04 00:23:21;;;;;;;27.33;20.38;;;8.20;99.90;;;;;;2084176;28;20027;-66
2024/03/04 00:24:22;;;;;;;25.88;20.50;;;8.20;99.90;;;;;;2085525;28;20100;-67
2024/03/04 00:25:26;;;;;;;25.83;19.20;;;8.20;99.90;;;;;;2086232;28;20017;-66
2024/03/04 00:26:26;;;;;;;25.02;19.63;;;8.20;99.90;;;;;;2085275;28;20025;-65
2024/03/04 00:27:27;;;;;;;27.60;19.15;;;8.20;99.90;;;;;;2086535;28;20020;-68
2024/03/04 00:28:27;;;;;;;23.55;18.20;;;8.20;99.90;;;;;;2084963;28;20645;-66
2024/03/04 00:29:28;;;;;;;24.98;19.75;;;8.20;99.90;;;;;;2085328;28;20169;-66
2024/03/04 00:30:29;;;;;;;25.48;20.48;;;8.20;99.90;;;;;;2085934;28;20028;-65
2024/03/04 00:31:30;;;;;;;26.15;20.05;;;8.20;99.90;;;;;;2086677;28;20037;-66
2024/03/04 00:32:31;;;;;;;27.10;20.38;;;8.20;99.90;;;;;;2087065;28;20037;-66
2024/03/04 00:33:32;;;;;;;24.35;19.58;;;8.20;99.90;;;;;;2087254;28;20533;-65
2024/03/04 00:34:32;;;;;;;29.80;21.48;;;8.20;99.90;;;;;;2082228;28;20393;-65
2024/03/04 00:35:33;;;;;;;28.08;20.98;;;8.20;99.90;;;;;;2087063;28;20103;-65
2024/03/04 00:36:34;;;;;;;26.30;19.23;;;8.20;99.90;;;;;;2075831;28;20021;-65
2024/03/04 00:37:35;;;;;;;24.95;19.88;;;8.20;99.90;;;;;;2077665;28;20029;-66
2024/03/04 00:38:36;;;;;;;23.73;19.70;;;8.20;99.90;;;;;;2086521;28;20018;-66
2024/03/04 00:39:41;;;;;;;26.63;21.33;;;8.30;99.90;;;;;;2087119;28;20108;-66
2024/03/04 00:40:42;;;;;;;28.35;20.58;;;8.30;99.90;;;;;;2085113;28;20028;-66
2024/03/04 00:41:42;;;;;;;27.23;21.38;;;8.30;99.90;;;;;;2085733;28;20588;-66
2024/03/04 00:42:43;;;;;;;27.52;20.60;;;8.30;99.90;;;;;;2077107;28;20083;-66
2024/03/04 00:43:44;;;;;;;28.65;20.42;;;8.30;99.90;;;;;;2076338;28;20564;-66
2024/03/04 00:44:44;;;;;;;28.95;21.48;;;8.30;99.90;;;;;;2085394;28;20045;-66
2024/03/04 00:45:45;;;;;;;27.08;21.35;;;8.30;99.90;;;;;;2086959;28;20108;-67
2024/03/04 00:46:46;;;;;;;30.83;22.48;;;8.40;99.90;;;;;;2081000;28;20034;-66
2024/03/04 00:47:47;;;;;;;30.45;23.80;;;8.40;99.90;;;;;;2080664;28;20079;-66
2024/03/04 00:48:48;;;;;;;26.70;21.55;;;8.40;99.90;;;;;;2084965;28;20017;-66
2024/03/04 00:49:48;;;;;;;27.55;21.63;;;8.40;99.90;;;;;;2086829;28;20025;-66
2024/03/04 00:50:52;;;;;;;28.70;22.05;;;8.40;99.90;;;;;;2084233;28;20036;-66
2024/03/04 00:51:53;;;;;;;33.63;23.58;;;8.40;99.90;;;;;;2086123;28;20162;-66
2024/03/04 00:52:55;;;;;;;29.05;22.38;;;8.40;99.90;;;;;;2085670;28;20071;-66
2024/03/04 00:53:55;;;;;;;28.05;22.33;;;8.40;99.90;;;;;;2085427;28;20033;-66
2024/03/04 00:54:56;;;;;;;30.33;22.75;;;8.50;99.90;;;;;;2085015;28;20029;-67
2024/03/04 00:55:58;;;;;;;26.98;21.67;;;8.50;99.90;;;;;;2085172;28;20066;-67
2024/03/04 00:56:59;;;;;;;28.55;22.90;;;8.50;99.90;;;;;;2083466;28;20040;-67
2024/03/04 00:57:59;;;;;;;30.85;23.38;;;8.50;99.90;;;;;;2084903;28;20107;-65
2024/03/04 00:59:00;;;;;;;27.27;22.38;;;8.50;99.90;;;;;;2083233;28;20059;-66
2024/03/04 01:00:05;;;;;;;27.63;22.42;;;8.50;99.90;;;;;;2085920;28;20376;-67
2024/03/04 01:01:06;;;;;;;27.42;22.35;;;8.50;99.90;;;;;;2084533;28;20021;-66
2024/03/04 01:02:07;;;;;;;28.17;22.17;;;8.60;99.90;;;;;;2084853;28;20051;-65
2024/03/04 01:03:08;;;;;;;26.00;21.60;;;8.60;99.90;;;;;;2086557;28;20021;-66
2024/03/04 01:04:08;;;;;;;27.27;23.05;;;8.60;99.90;;;;;;2086163;28;20026;-67
2024/03/04 01:05:09;;;;;;;28.92;24.30;;;8.60;99.90;;;;;;2086885;28;20033;-65
2024/03/04 01:06:09;;;;;;;29.05;23.73;;;8.60;99.90;;;;;;2084631;28;20036;-68
2024/03/04 01:07:10;;;;;;;34.53;25.23;;;8.60;99.90;;;;;;2086045;28;20030;-67
2024/03/04 01:08:10;;;;;;;32.45;23.92;;;8.60;99.90;;;;;;2082235;28;20055;-67
2024/03/04 01:09:11;;;;;;;28.73;24.08;;;8.60;99.90;;;;;;2087044;28;20029;-67
2024/03/04 01:10:12;;;;;;;29.85;24.02;;;8.60;99.90;;;;;;2084879;28;20477;-66
2024/03/04 01:11:12;;;;;;;31.50;24.98;;;8.60;99.90;;;;;;2087316;28;20029;-66
2024/03/04 01:12:13;;;;;;;30.33;24.63;;;8.70;99.90;;;;;;2078613;28;20029;-65
2024/03/04 01:13:13;;;;;;;31.08;24.63;;;8.70;99.90;;;;;;2077127;28;20068;-66
2024/03/04 01:14:14;;;;;;;31.20;24.40;;;8.70;99.90;;;;;;2082546;28;20083;-66
2024/03/04 01:15:14;;;;;;;32.72;25.08;;;8.70;99.90;;;;;;2086169;28;20104;-66
2024/03/04 01:16:16;;;;;;;29.95;25.38;;;8.70;99.90;;;;;;2084153;28;20029;-66
2024/03/04 01:17:16;;;;;;;31.20;25.88;;;8.70;99.90;;;;;;2085044;28;20360;-67
2024/03/04 01:18:17;;;;;;;32.33;24.48;;;8.70;99.90;;;;;;2082977;28;20462;-68
2024/03/04 01:19:17;;;;;;;28.05;24.48;;;8.70;99.90;;;;;;2086181;28;20477;-66
2024/03/04 01:20:20;;;;;;;31.33;25.58;;;8.70;99.90;;;;;;2086441;28;20508;-65
2024/03/04 01:21:24;;;;;;;31.40;24.70;;;8.70;99.90;;;;;;2085293;28;20077;-66
2024/03/04 01:22:26;;;;;;;32.13;24.92;;;8.80;99.90;;;;;;2086162;28;20032;-66
2024/03/04 01:23:30;;;;;;;31.05;26.25;;;8.80;99.90;;;;;;2085666;28;20033;-66
2024/03/04 01:24:31;;;;;;;30.40;26.65;;;8.80;99.90;;;;;;2082715;28;20043;-67
2024/03/04 01:25:31;;;;;;;31.65;26.40;;;8.80;99.90;;;;;;2085885;28;20068;-66
2024/03/04 01:26:32;;;;;;;30.85;25.10;;;8.80;99.90;;;;;;2085215;28;20041;-66
2024/03/04 01:27:35;;;;;;;30.33;25.88;;;8.80;99.90;;;;;;2085571;28;20029;-66
2024/03/04 01:28:36;;;;;;;31.65;26.63;;;8.90;99.90;;;;;;2085857;28;20033;-67
2024/03/04 01:29:37;;;;;;;36.40;28.77;;;8.90;99.90;;;;;;2086578;28;20082;-66
2024/03/04 01:30:38;;;;;;;37.00;29.50;;;8.90;99.90;;;;;;2084627;28;20034;-65
2024/03/04 01:31:38;;;;;;;36.33;28.48;;;8.90;99.90;;;;;;2085760;28;20481;-65
2024/03/04 01:32:40;;;;;;;37.63;29.25;;;8.90;99.90;;;;;;2085942;28;20484;-67
2024/03/04 01:33:47;;;;;;;34.53;28.20;;;9.00;99.90;;;;;;2084638;28;20642;-67
2024/03/04 01:34:50;;;;;;;35.03;28.60;;;9.00;99.90;;;;;;2085090;28;20135;-67
2024/03/04 01:35:54;;;;;;;35.22;29.90;;;9.00;99.90;;;;;;2084559;28;20481;-66
2024/03/04 01:36:55;;;;;;;36.45;29.80;;;9.00;99.90;;;;;;2086978;28;20033;-66
2024/03/04 01:37:55;;;;;;;36.78;30.42;;;9.00;99.90;;;;;;2085450;28;20079;-65
2024/03/04 01:38:56;;;;;;;42.38;31.92;;;9.00;99.90;;;;;;2084695;28;20416;-66
2024/03/04 01:39:57;;;;;;;40.10;32.05;;;9.10;99.90;;;;;;2085555;28;20113;-68
2024/03/04 01:40:58;;;;;;;40.78;32.33;;;9.10;99.90;;;;;;2085044;28;20025;-65
2024/03/04 01:41:58;;;;;;;39.03;33.28;;;9.10;99.90;;;;;;2086191;28;20478;-67
2024/03/04 01:42:59;;;;;;;39.92;32.22;;;9.10;99.90;;;;;;2086216;28;20555;-67
2024/03/04 01:44:00;;;;;;;44.63;33.35;;;9.20;99.90;;;;;;2084778;28;20107;-68
2024/03/04 01:45:13;;;;;;;41.90;34.90;;;9.20;99.90;;;;;;2083624;28;20037;-66
2024/03/04 01:46:14;;;;;;;40.10;33.33;;;9.20;99.90;;;;;;2085036;28;20159;-66
2024/03/04 01:47:20;;;;;;;43.65;35.28;;;9.20;99.90;;;;;;2085850;28;20267;-66
2024/03/04 01:48:30;;;;;;;43.10;34.70;;;9.30;99.90;;;;;;2084615;28;20025;-65
2024/03/04 01:49:37;;;;;;;40.05;33.83;;;9.30;99.90;;;;;;2075943;28;20030;-65
2024/03/04 01:50:41;;;;;;;43.05;35.15;;;9.30;99.90;;;;;;2075614;28;20033;-65
2024/03/04 01:51:41;;;;;;;47.17;37.80;;;9.30;99.90;;;;;;2085468;28;20054;-66
2024/03/04 01:52:42;;;;;;;50.85;39.30;;;9.30;99.90;;;;;;2084666;28;20021;-66
2024/03/04 01:53:43;;;;;;;48.22;36.60;;;9.30;99.90;;;;;;2085348;28;20029;-67
2024/03/04 01:54:50;;;;;;;43.15;36.53;;;9.30;99.90;;;;;;2086770;28;20032;-66
2024/03/04 01:56:02;;;;;;;45.42;37.08;;;9.30;99.90;;;;;;2084035;28;20021;-67
2024/03/04 01:57:09;;;;;;;45.38;36.38;;;9.40;99.90;;;;;;2083542;28;20426;-66
2024/03/04 01:58:11;;;;;;;45.20;36.00;;;9.40;99.90;;;;;;2083892;28;20116;-67
2024/03/04 01:59:12;;;;;;;44.55;37.08;;;9.40;99.90;;;;;;2084262;28;20021;-65
2024/03/04 02:00:14;;;;;;;54.45;38.40;;;9.40;99.90;;;;;;2086385;28;20439;-66
2024/03/04 02:01:15;;;;;;;48.72;38.75;;;9.40;99.90;;;;;;2085472;28;20079;-65
2024/03/04 02:02:16;;;;;;;49.60;38.17;;;9.40;99.90;;;;;;2084682;28;20072;-66
2024/03/04 02:03:18;;;;;;;48.08;38.55;;;9.40;99.90;;;;;;2084873;28;20037;-69
2024/03/04 02:04:20;;;;;;;50.13;40.00;;;9.40;99.90;;;;;;2077713;28;20033;-66
2024/03/04 02:05:20;;;;;;;49.05;37.17;;;9.50;99.90;;;;;;2077256;28;20398;-65
2024/03/04 02:06:21;;;;;;;48.15;37.42;;;9.50;99.90;;;;;;2083573;28;20048;-67
2024/03/04 02:07:22;;;;;;;50.45;38.05;;;9.50;99.90;;;;;;2084459;28;20025;-66
2024/03/04 02:08:23;;;;;;;50.47;38.92;;;9.50;99.90;;;;;;2085747;28;20029;-66
2024/03/04 02:09:26;;;;;;;48.63;39.42;;;9.50;99.90;;;;;;2083876;28;20026;-66
2024/03/04 02:10:26;;;;;;;47.72;38.83;;;9.50;99.90;;;;;;2084430;28;20029;-66
2024/03/04 02:11:33;;;;;;;50.60;40.33;;;9.60;99.90;;;;;;2083656;28;20358;-65
2024/03/04 02:12:39;;;;;;;53.15;40.90;;;9.60;99.90;;;;;;2078294;28;20045;-65
2024/03/04 02:13:40;;;;;;;51.08;40.75;;;9.60;99.90;;;;;;2077652;28;20030;-66
2024/03/04 02:14:41;;;;;;;51.10;40.45;;;9.60;99.90;;;;;;2084022;28;20042;-68
2024/03/04 02:15:41;;;;;;;51.67;41.25;;;9.50;99.90;;;;;;2082299;28;20394;-67
2024/03/04 02:16:45;;;;;;;50.70;41.25;;;9.60;99.90;;;;;;2085388;28;20047;-65
2024/03/04 02:17:45;;;;;;;51.85;40.33;;;9.60;99.90;;;;;;2077576;28;20075;-67
2024/03/04 02:18:46;;;;;;;52.92;42.33;;;9.60;99.90;;;;;;2075831;28;20033;-65
2024/03/04 02:19:47;;;;;;;52.72;42.40;;;9.60;99.90;;;;;;2084519;28;20057;-65
2024/03/04 02:20:57;;;;;;;54.17;41.58;;;9.60;99.90;;;;;;2085177;28;20035;-65
2024/03/04 02:22:02;;;;;;;49.97;40.30;;;9.60;99.90;;;;;;2084889;28;20048;-67
2024/03/04 02:23:03;;;;;;;51.88;40.95;;;9.60;99.90;;;;;;2082543;28;20067;-68
2024/03/04 02:24:04;;;;;;;53.13;41.20;;;9.60;99.90;;;;;;2085333;28;20397;-66
2024/03/04 02:25:05;;;;;;;58.47;41.85;;;9.70;99.90;;;;;;2084172;28;20047;-67
2024/03/04 02:26:06;;;;;;;52.80;42.35;;;9.70;99.90;;;;;;2079821;28;20035;-68
2024/03/04 02:27:06;;;;;;;55.13;42.50;;;9.70;99.90;;;;;;2079911;28;20030;-68
2024/03/04 02:28:08;;;;;;;55.80;43.08;;;9.70;99.90;;;;;;2084220;28;20017;-66
2024/03/04 02:29:10;;;;;;;54.22;43.33;;;9.70;99.90;;;;;;2086943;28;20025;-67
2024/03/04 02:30:11;;;;;;;56.72;45.00;;;9.70;99.90;;;;;;2083753;28;20519;-67
2024/03/04 02:31:13;;;;;;;57.28;43.80;;;9.70;99.90;;;;;;2083971;28;20032;-68
2024/03/04 02:32:16;;;;;;;59.53;44.95;;;9.70;99.90;;;;;;2084364;28;20032;-67
2024/03/04 02:33:21;;;;;;;58.90;45.47;;;9.80;99.90;;;;;;2084977;28;20053;-68
2024/03/04 02:34:21;;;;;;;57.70;43.55;;;9.80;99.90;;;;;;2084195;28;20064;-64
2024/03/04 02:35:22;;;;;;;55.63;42.85;;;9.80;99.90;;;;;;2085736;28;20079;-67
2024/03/04 02:36:23;;;;;;;59.72;45.33;;;9.80;99.90;;;;;;2083389;28;20512;-67
2024/03/04 02:37:24;;;;;;;57.85;44.58;;;9.80;99.90;;;;;;2085275;28;20025;-65
2024/03/04 02:38:25;;;;;;;61.75;46.75;;;9.80;99.90;;;;;;2075534;28;20037;-65
2024/03/04 02:39:28;;;;;;;64.55;44.80;;;9.80;99.90;;;;;;2074222;28;20940;-67
2024/03/04 02:40:29;;;;;;;61.50;46.97;;;9.80;99.90;;;;;;2082287;28;20033;-69
2024/03/04 02:41:29;;;;;;;61.50;45.75;;;9.80;99.90;;;;;;2084573;28;20397;-66
2024/03/04 02:42:31;;;;;;;62.70;46.50;;;9.80;99.90;;;;;;2083452;28;20371;-65
2024/03/04 02:43:31;;;;;;;59.85;46.72;;;9.80;99.90;;;;;;2082935;28;20055;-65
2024/03/04 02:44:32;;;;;;;59.63;45.08;;;9.80;99.90;;;;;;2082856;28;20051;-65
2024/03/04 02:45:34;;;;;;;61.05;46.53;;;9.80;99.90;;;;;;2083533;28;20083;-67
2024/03/04 02:46:34;;;;;;;62.80;46.83;;;9.80;99.90;;;;;;2083952;28;20029;-67
2024/03/04 02:47:35;;;;;;;62.72;46.30;;;9.80;99.90;;;;;;2084702;28;20552;-65
2024/03/04 02:48:35;;;;;;;58.50;46.53;;;9.80;99.90;;;;;;2084004;28;20045;-65
2024/03/04 02:49:51;;;;;;;65.38;48.17;;;9.90;99.90;;;;;;2082063;28;20503;-67
2024/03/04 02:50:52;;;;;;;65.78;47.10;;;9.90;99.90;;;;;;2085246;28;20029;-65
2024/03/04 02:51:55;;;;;;;65.57;47.85;;;9.80;99.90;;;;;;2086198;28;20029;-67
2024/03/04 02:52:56;;;;;;;67.53;48.70;;;9.90;99.90;;;;;;2085895;28;20025;-66
2024/03/04 02:53:57;;;;;;;66.28;48.83;;;9.90;99.90;;;;;;2084392;28;20028;-65
2024/03/04 02:54:58;;;;;;;67.72;49.35;;;9.90;99.90;;;;;;2085875;28;20089;-67
2024/03/04 02:55:58;;;;;;;65.80;48.00;;;9.90;99.90;;;;;;2085002;28;20013;-66
2024/03/04 02:56:59;;;;;;;67.50;47.97;;;9.90;99.90;;;;;;2086196;28;20123;-65
2024/03/04 02:58:00;;;;;;;70.95;49.72;;;9.90;99.90;;;;;;2083024;28;20034;-67
2024/03/04 02:59:00;;;;;;;64.82;47.22;;;9.90;99.90;;;;;;2085490;28;20410;-65
2024/03/04 03:00:01;;;;;;;69.43;48.65;;;9.90;99.90;;;;;;2084518;28;20080;-68
2024/03/04 03:01:01;;;;;;;64.93;49.05;;;9.90;99.90;;;;;;2084872;28;20036;-66
2024/03/04 03:02:02;;;;;;;68.18;47.75;;;9.90;99.90;;;;;;2082467;28;20056;-67
2024/03/04 03:03:04;;;;;;;69.50;50.42;;;9.90;99.90;;;;;;2084996;28;20075;-66
2024/03/04 03:04:04;;;;;;;65.40;46.80;;;9.90;99.90;;;;;;2085181;28;20465;-65
2024/03/04 03:05:05;;;;;;;67.13;48.10;;;10.00;99.90;;;;;;2086971;28;20423;-66
2024/03/04 03:06:05;;;;;;;66.65;47.47;;;9.90;99.90;;;;;;2084478;28;21216;-67
2024/03/04 03:07:06;;;;;;;67.65;48.00;;;10.00;99.90;;;;;;2082558;28;20068;-66
2024/03/04 03:08:07;;;;;;;64.75;46.25;;;9.90;99.90;;;;;;2085783;28;20046;-66
2024/03/04 03:09:09;;;;;;;66.68;47.95;;;10.00;99.90;;;;;;2087570;28;20029;-67
2024/03/04 03:10:12;;;;;;;62.55;47.13;;;10.00;99.90;;;;;;2085389;28;20037;-67
2024/03/04 03:11:13;;;;;;;67.32;47.88;;;10.00;99.90;;;;;;2082638;28;20076;-67
2024/03/04 03:12:14;;;;;;;62.08;47.00;;;10.00;99.90;;;;;;2082954;28;20437;-67
2024/03/04 03:13:14;;;;;;;62.70;46.00;;;10.00;99.90;;;;;;2084117;28;20040;-67
2024/03/04 03:14:15;;;;;;;64.50;46.65;;;10.10;99.90;;;;;;2086155;28;20556;-67
2024/03/04 03:15:16;;;;;;;66.45;47.95;;;10.00;99.90;;;;;;2082558;28;20029;-66
2024/03/04 03:16:20;;;;;;;62.58;44.60;;;10.00;99.90;;;;;;2084414;28;20356;-67
2024/03/04 03:17:22;;;;;;;61.20;45.58;;;10.10;99.90;;;;;;2084794;28;20029;-67
2024/03/04 03:18:22;;;;;;;68.53;46.25;;;10.00;99.90;;;;;;2085161;28;20021;-67
2024/03/04 03:19:24;;;;;;;61.05;43.42;;;10.10;99.90;;;;;;2085082;28;20029;-67
2024/03/04 03:20:25;;;;;;;63.38;43.05;;;10.00;99.90;;;;;;2083159;28;21270;-67
2024/03/04 03:21:29;;;;;;;60.92;43.03;;;10.10;99.90;;;;;;2085176;28;20045;-67
2024/03/04 03:22:30;;;;;;;66.00;44.95;;;10.00;99.90;;;;;;2084948;28;20083;-67
2024/03/04 03:23:30;;;;;;;60.83;43.40;;;10.10;99.90;;;;;;2085203;28;20377;-67
2024/03/04 03:24:31;;;;;;;60.80;43.58;;;10.00;99.90;;;;;;2084529;28;20051;-67
2024/03/04 03:25:32;;;;;;;60.95;44.80;;;10.10;99.90;;;;;;2085476;28;20021;-66
2024/03/04 03:26:32;;;;;;;64.68;44.90;;;10.10;99.90;;;;;;2085757;28;20136;-67
2024/03/04 03:27:33;;;;;;;62.00;45.15;;;10.10;99.90;;;;;;2086288;28;20033;-67
2024/03/04 03:28:33;;;;;;;62.78;46.17;;;10.00;99.90;;;;;;2084998;28;20123;-66
2024/03/04 03:29:34;;;;;;;64.60;44.70;;;10.10;99.90;;;;;;2084216;28;20036;-67
2024/03/04 03:30:34;;;;;;;58.40;42.30;;;10.10;99.90;;;;;;2087545;28;20490;-74
2024/03/04 03:31:36;;;;;;;62.28;43.42;;;10.00;99.90;;;;;;2086795;28;20056;-74
2024/03/04 03:32:37;;;;;;;59.83;44.75;;;10.10;99.90;;;;;;2076621;28;20034;-70
2024/03/04 03:33:38;;;;;;;63.08;44.42;;;10.10;99.90;;;;;;2078544;28;20079;-75
2024/03/04 03:34:39;;;;;;;63.75;44.17;;;10.10;99.90;;;;;;2083416;28;20506;-73
2024/03/04 03:35:39;;;;;;;63.67;45.30;;;10.00;99.90;;;;;;2086406;28;20035;-73
2024/03/04 03:36:41;;;;;;;62.08;43.55;;;10.10;99.90;;;;;;2072177;28;20026;-73
2024/03/04 03:37:41;;;;;;;59.55;43.28;;;10.00;99.90;;;;;;2073670;28;20040;-75
2024/03/04 03:38:42;;;;;;;62.50;43.78;;;10.00;99.90;;;;;;2085238;28;20026;-75
2024/03/04 03:39:44;;;;;;;61.65;43.75;;;10.10;99.90;;;;;;2080094;28;20874;-74
2024/03/04 03:40:45;;;;;;;60.45;43.13;;;10.10;99.90;;;;;;2081987;28;20033;-73
2024/03/04 03:41:46;;;;;;;59.67;43.00;;;10.10;99.90;;;;;;2086253;28;20033;-74
2024/03/04 03:42:46;;;;;;;61.63;44.50;;;10.10;99.90;;;;;;2085614;28;20055;-73
2024/03/04 03:43:47;;;;;;;61.17;42.85;;;10.10;99.90;;;;;;2085847;28;20037;-72
2024/03/04 03:44:48;;;;;;;61.78;44.47;;;10.10;99.90;;;;;;2085681;28;20090;-75
2024/03/04 03:45:48;;;;;;;62.60;45.67;;;10.20;99.90;;;;;;2085133;28;20032;-73
2024/03/04 03:46:49;;;;;;;66.68;44.20;;;10.10;99.90;;;;;;2086811;28;20025;-73
2024/03/04 03:47:50;;;;;;;59.80;44.00;;;10.20;99.90;;;;;;2086199;28;20491;-72
2024/03/04 03:48:50;;;;;;;64.65;45.00;;;10.20;99.90;;;;;;2084464;28;20037;-75
2024/03/04 03:49:51;;;;;;;62.15;43.05;;;10.20;99.90;;;;;;2085683;28;20067;-72
2024/03/04 03:50:57;;;;;;;60.75;44.60;;;10.20;99.90;;;;;;2084405;28;20029;-73
2024/03/04 03:51:58;;;;;;;63.28;43.72;;;10.20;99.90;;;;;;2078542;28;20030;-72
2024/03/04 03:52:58;;;;;;;60.88;43.25;;;10.20;99.90;;;;;;2078178;28;20037;-72
2024/03/04 03:54:00;;;;;;;64.95;45.25;;;10.20;99.90;;;;;;2085445;28;20340;-75
2024/03/04 03:55:00;;;;;;;63.25;43.70;;;10.20;99.90;;;;;;2085304;28;20036;-72
2024/03/04 03:56:07;;;;;;;66.50;44.90;;;10.20;99.90;;;;;;2085690;28;20101;-73
2024/03/04 03:57:08;;;;;;;57.80;42.60;;;10.20;99.90;;;;;;2085419;28;20025;-73
2024/03/04 03:58:08;;;;;;;58.88;41.85;;;10.20;99.90;;;;;;2088096;28;20040;-75
2024/03/04 03:59:09;;;;;;;64.43;42.80;;;10.20;99.90;;;;;;2084985;28;20053;-73
2024/03/04 04:00:10;;;;;;;62.90;44.13;;;10.20;99.90;;;;;;2085294;28;20414;-72
2024/03/04 04:01:11;;;;;;;61.53;43.08;;;10.20;99.90;;;;;;2085699;28;20033;-72
2024/03/04 04:02:12;;;;;;;64.75;44.35;;;10.20;99.90;;;;;;2083653;28;20021;-74
2024/03/04 04:03:13;;;;;;;66.15;44.55;;;10.20;99.90;;;;;;2085232;28;20024;-73
2024/03/04 04:04:14;;;;;;;61.95;42.28;;;10.20;99.90;;;;;;2079871;28;20025;-73
2024/03/04 04:05:15;;;;;;;58.75;42.00;;;10.20;99.90;;;;;;2079595;28;20196;-70
2024/03/04 04:06:16;;;;;;;69.13;45.03;;;10.20;99.90;;;;;;2085889;28;20025;-73
2024/03/04 04:07:18;;;;;;;63.25;43.55;;;10.20;99.90;;;;;;2085595;28;20030;-73
2024/03/04 04:08:18;;;;;;;63.53;43.53;;;10.20;99.90;;;;;;2086170;28;20025;-73
2024/03/04 04:09:19;;;;;;;58.65;42.38;;;10.20;99.90;;;;;;2084745;28;20029;-72
2024/03/04 04:10:22;;;;;;;59.22;43.13;;;10.20;99.90;;;;;;2086491;28;20036;-73
2024/03/04 04:11:23;;;;;;;60.78;42.88;;;10.20;99.90;;;;;;2088138;28;20052;-73
2024/03/04 04:12:23;;;;;;;62.03;42.53;;;10.20;99.90;;;;;;2085492;28;20029;-72
2024/03/04 04:13:24;;;;;;;62.63;42.05;;;10.30;99.90;;;;;;2085343;28;20033;-72
2024/03/04 04:14:27;;;;;;;64.20;43.22;;;10.20;99.90;;;;;;2087049;28;20036;-74
2024/03/04 04:15:27;;;;;;;65.07;44.50;;;10.20;99.90;;;;;;2086605;28;20351;-73
2024/03/04 04:16:29;;;;;;;65.88;44.90;;;10.20;99.90;;;;;;2078120;28;20024;-70
2024/03/04 04:17:29;;;;;;;58.78;41.35;;;10.20;99.90;;;;;;2079436;28;20074;-73
2024/03/04 04:18:30;;;;;;;65.15;44.22;;;10.30;99.90;;;;;;2084861;28;20418;-73
2024/03/04 04:19:31;;;;;;;64.38;42.97;;;10.20;99.90;;;;;;2085907;28;20025;-73
2024/03/04 04:20:31;;;;;;;60.58;43.30;;;10.30;99.90;;;;;;2087014;28;20024;-72
2024/03/04 04:21:32;;;;;;;62.22;42.28;;;10.20;99.90;;;;;;2084613;28;20075;-69
2024/03/04 04:22:33;;;;;;;60.95;44.08;;;10.20;99.90;;;;;;2085689;28;20032;-73
2024/03/04 04:23:33;;;;;;;64.95;43.20;;;10.20;99.90;;;;;;2081236;28;20818;-73
2024/03/04 04:24:38;;;;;;;62.67;42.70;;;10.20;99.90;;;;;;2072090;28;20612;-70
2024/03/04 04:25:39;;;;;;;66.15;44.90;;;10.20;99.90;;;;;;2077879;28;20394;-73
2024/03/04 04:26:39;;;;;;;63.78;44.05;;;10.30;99.90;;;;;;2086281;28;20032;-75
2024/03/04 04:27:40;;;;;;;68.43;44.35;;;10.20;99.90;;;;;;2086291;28;20375;-71
2024/03/04 04:28:42;;;;;;;64.63;44.35;;;10.20;99.90;;;;;;2078482;28;20116;-76
2024/03/04 04:29:43;;;;;;;66.65;43.42;;;10.30;99.90;;;;;;2077374;28;20025;-73
2024/03/04 04:30:44;;;;;;;69.18;46.03;;;10.20;99.90;;;;;;2086857;28;20460;-72
2024/03/04 04:31:44;;;;;;;61.60;42.42;;;10.20;99.90;;;;;;2085911;28;20029;-74
2024/03/04 04:32:45;;;;;;;64.75;44.83;;;10.20;99.90;;;;;;2086140;28;20032;-72
2024/03/04 04:33:45;;;;;;;64.70;43.63;;;10.20;99.90;;;;;;2086162;28;20104;-75
2024/03/04 04:34:46;;;;;;;65.55;45.70;;;10.20;99.90;;;;;;2085013;28;20516;-72
2024/03/04 04:35:47;;;;;;;64.15;45.05;;;10.30;99.90;;;;;;2077556;28;20482;-72
2024/03/04 04:36:50;;;;;;;67.82;44.47;;;10.30;99.90;;;;;;2077563;28;20034;-72
2024/03/04 04:37:51;;;;;;;64.78;45.22;;;10.30;99.90;;;;;;2086150;28;20115;-72
2024/03/04 04:38:52;;;;;;;68.80;45.95;;;10.20;99.90;;;;;;2086138;28;20079;-74
2024/03/04 04:39:52;;;;;;;69.93;46.45;;;10.20;99.90;;;;;;2085699;28;20086;-75
2024/03/04 04:40:53;;;;;;;66.15;46.00;;;10.20;99.90;;;;;;2084358;28;20025;-75
2024/03/04 04:41:53;;;;;;;68.32;45.22;;;10.20;99.90;;;;;;2084382;28;20442;-74
2024/03/04 04:42:54;;;;;;;68.10;45.47;;;10.30;99.90;;;;;;2087129;28;20029;-74
2024/03/04 04:43:54;;;;;;;65.78;44.10;;;10.20;99.90;;;;;;2085213;28;20124;-74
2024/03/04 04:44:55;;;;;;;69.82;45.60;;;10.30;99.90;;;;;;2085158;28;20032;-75
2024/03/04 04:45:56;;;;;;;68.78;46.20;;;10.30;99.90;;;;;;2085642;28;20059;-75
2024/03/04 04:46:56;;;;;;;63.53;44.60;;;10.30;99.90;;;;;;2085498;28;20048;-75
2024/03/04 04:47:57;;;;;;;61.13;43.08;;;10.20;99.90;;;;;;2084196;28;20031;-72
2024/03/04 04:48:57;;;;;;;64.50;44.58;;;10.30;99.90;;;;;;2086018;28;20029;-75
2024/03/04 04:49:58;;;;;;;64.53;45.45;;;10.20;99.90;;;;;;2083233;28;20030;-74
2024/03/04 04:50:59;;;;;;;62.85;43.38;;;10.30;99.90;;;;;;2084596;28;20025;-71
2024/03/04 04:52:02;;;;;;;65.40;43.88;;;10.30;99.90;;;;;;2084009;28;20567;-73
2024/03/04 04:53:03;;;;;;;62.80;43.97;;;10.30;99.90;;;;;;2085991;28;20121;-73
2024/03/04 04:54:04;;;;;;;60.40;41.22;;;10.30;99.90;;;;;;2086611;28;20028;-73
2024/03/04 04:55:05;;;;;;;59.60;42.20;;;10.30;99.90;;;;;;2087100;28;20039;-73
2024/03/04 04:56:16;;;;;;;61.10;43.10;;;10.30;99.90;;;;;;2084179;28;20116;-73
2024/03/04 04:57:19;;;;;;;54.63;39.45;;;10.30;99.90;;;;;;2086214;28;20025;-71
2024/03/04 04:58:20;;;;;;;63.08;42.50;;;10.30;99.90;;;;;;2079992;28;20022;-75
2024/03/04 04:59:21;;;;;;;60.47;41.88;;;10.30;99.90;;;;;;2077711;28;20377;-75
2024/03/04 05:00:22;;;;;;;63.45;43.95;;;10.30;99.90;;;;;;2084562;28;20423;-68
2024/03/04 05:01:28;;;;;;;62.63;43.92;;;10.30;99.90;;;;;;2089063;28;20035;-66
2024/03/04 05:02:29;;;;;;;59.58;43.08;;;10.30;99.90;;;;;;2075546;28;20040;-74
2024/03/04 05:03:30;;;;;;;60.67;42.28;;;10.20;99.90;;;;;;2078142;28;20045;-73
2024/03/04 05:04:31;;;;;;;65.28;44.75;;;10.30;99.90;;;;;;2074273;28;20057;-75
2024/03/04 05:05:31;;;;;;;63.10;43.45;;;10.20;99.90;;;;;;2085049;28;20040;-73
2024/03/04 05:06:32;;;;;;;58.67;42.20;;;10.30;99.90;;;;;;2084781;28;20032;-73
2024/03/04 05:07:32;;;;;;;63.35;43.20;;;10.20;99.90;;;;;;2083875;28;20013;-73
2024/03/04 05:08:33;;;;;;;61.03;42.97;;;10.30;99.90;;;;;;2085257;28;20025;-73
2024/03/04 05:09:34;;;;;;;59.67;40.80;;;10.20;99.90;;;;;;2085197;28;20109;-73
2024/03/04 05:10:39;;;;;;;62.50;43.05;;;10.30;99.90;;;;;;2083430;28;20033;-73
2024/03/04 05:11:42;;;;;;;57.75;40.85;;;10.20;99.90;;;;;;2084636;28;20030;-73
2024/03/04 05:12:43;;;;;;;61.90;44.25;;;10.30;99.90;;;;;;2084905;28;20029;-72
2024/03/04 05:13:44;;;;;;;61.80;43.20;;;10.30;99.90;;;;;;2082770;28;20029;-72
2024/03/04 05:14:47;;;;;;;64.63;42.10;;;10.30;99.90;;;;;;2085291;28;20033;-74